sensor_id;sensor_type;location;lat;lon;timestamp;temperature;humidity
67799;SHT30;54596;43.216;27.904;2022-10-16T00:02:24;12.90;74.34
67799;SHT30;54596;43.216;27.904;2022-10-16T00:04:49;12.84;74.52
67799;SHT30;54596;43.216;27.904;2022-10-16T00:07:15;12.79;74.70
67799;SHT30;54596;43.216;27.904;2022-10-16T00:09:40;12.69;75.29
67799;SHT30;54596;43.216;27.904;2022-10-16T00:12:06;12.69;75.27
67799;SHT30;54596;43.216;27.904;2022-10-16T00:14:32;12.62;75.31
67799;SHT30;54596;43.216;27.904;2022-10-16T00:16:57;12.60;75.40
67799;SHT30;54596;43.216;27.904;2022-10-16T00:19:23;12.49;75.67
67799;SHT30;54596;43.216;27.904;2022-10-16T00:21:48;12.43;75.77
67799;SHT30;54596;43.216;27.904;2022-10-16T00:24:14;12.42;75.96
67799;SHT30;54596;43.216;27.904;2022-10-16T00:26:40;12.41;75.91
67799;SHT30;54596;43.216;27.904;2022-10-16T00:29:06;12.35;75.97
67799;SHT30;54596;43.216;27.904;2022-10-16T00:31:31;12.29;76.07
67799;SHT30;54596;43.216;27.904;2022-10-16T00:33:57;12.25;76.06
67799;SHT30;54596;43.216;27.904;2022-10-16T00:36:24;12.20;76.29
67799;SHT30;54596;43.216;27.904;2022-10-16T00:38:52;12.15;76.26
67799;SHT30;54596;43.216;27.904;2022-10-16T00:41:22;12.08;76.49
67799;SHT30;54596;43.216;27.904;2022-10-16T00:46:25;12.04;76.64
67799;SHT30;54596;43.216;27.904;2022-10-16T00:48:59;11.97;76.99
67799;SHT30;54596;43.216;27.904;2022-10-16T00:51:33;11.91;76.82
67799;SHT30;54596;43.216;27.904;2022-10-16T00:54:01;11.90;76.77
67799;SHT30;54596;43.216;27.904;2022-10-16T00:56:27;11.87;76.78
67799;SHT30;54596;43.216;27.904;2022-10-16T00:58:53;11.81;76.33
67799;SHT30;54596;43.216;27.904;2022-10-16T01:01:19;11.80;76.57
67799;SHT30;54596;43.216;27.904;2022-10-16T01:03:44;11.77;76.47
67799;SHT30;54596;43.216;27.904;2022-10-16T01:09:09;11.72;76.38
67799;SHT30;54596;43.216;27.904;2022-10-16T01:12:19;11.72;76.54
67799;SHT30;54596;43.216;27.904;2022-10-16T01:15:01;11.69;76.70
67799;SHT30;54596;43.216;27.904;2022-10-16T01:17:35;11.67;76.71
67799;SHT30;54596;43.216;27.904;2022-10-16T01:25:49;11.73;76.82
67799;SHT30;54596;43.216;27.904;2022-10-16T01:28:21;11.76;76.59
67799;SHT30;54596;43.216;27.904;2022-10-16T01:30:48;11.67;76.66
67799;SHT30;54596;43.216;27.904;2022-10-16T01:33:25;11.66;76.87
67799;SHT30;54596;43.216;27.904;2022-10-16T01:35:58;11.63;76.87
67799;SHT30;54596;43.216;27.904;2022-10-16T01:38:38;11.58;76.92
67799;SHT30;54596;43.216;27.904;2022-10-16T01:41:19;11.55;76.75
67799;SHT30;54596;43.216;27.904;2022-10-16T01:46:37;11.51;76.87
67799;SHT30;54596;43.216;27.904;2022-10-16T01:49:06;11.55;76.77
67799;SHT30;54596;43.216;27.904;2022-10-16T01:51:34;11.56;76.60
67799;SHT30;54596;43.216;27.904;2022-10-16T01:54:01;11.49;76.81
67799;SHT30;54596;43.216;27.904;2022-10-16T01:56:28;11.46;76.86
67799;SHT30;54596;43.216;27.904;2022-10-16T01:59:01;11.45;76.91
67799;SHT30;54596;43.216;27.904;2022-10-16T02:01:31;11.40;76.81
67799;SHT30;54596;43.216;27.904;2022-10-16T02:04:03;11.39;76.93
67799;SHT30;54596;43.216;27.904;2022-10-16T02:06:29;11.42;76.52
67799;SHT30;54596;43.216;27.904;2022-10-16T02:08:55;11.42;76.45
67799;SHT30;54596;43.216;27.904;2022-10-16T02:11:20;11.40;76.46
67799;SHT30;54596;43.216;27.904;2022-10-16T02:13:58;11.38;76.48
67799;SHT30;54596;43.216;27.904;2022-10-16T02:16:45;11.32;76.46
67799;SHT30;54596;43.216;27.904;2022-10-16T02:19:13;11.31;76.34
67799;SHT30;54596;43.216;27.904;2022-10-16T02:24:31;11.25;76.12
67799;SHT30;54596;43.216;27.904;2022-10-16T02:27:03;11.29;75.63
67799;SHT30;54596;43.216;27.904;2022-10-16T02:29:32;11.24;75.57
67799;SHT30;54596;43.216;27.904;2022-10-16T02:32:01;11.22;75.47
67799;SHT30;54596;43.216;27.904;2022-10-16T02:34:28;11.22;75.24
67799;SHT30;54596;43.216;27.904;2022-10-16T02:36:55;11.24;75.01
67799;SHT30;54596;43.216;27.904;2022-10-16T02:39:21;11.22;74.90
67799;SHT30;54596;43.216;27.904;2022-10-16T02:41:47;11.21;74.79
67799;SHT30;54596;43.216;27.904;2022-10-16T02:44:13;11.22;74.91
67799;SHT30;54596;43.216;27.904;2022-10-16T02:46:38;11.24;74.80
67799;SHT30;54596;43.216;27.904;2022-10-16T02:49:04;11.27;74.13
67799;SHT30;54596;43.216;27.904;2022-10-16T02:51:29;11.25;73.80
67799;SHT30;54596;43.216;27.904;2022-10-16T02:53:55;11.24;73.73
67799;SHT30;54596;43.216;27.904;2022-10-16T02:56:21;11.24;73.70
67799;SHT30;54596;43.216;27.904;2022-10-16T02:58:46;11.17;73.69
67799;SHT30;54596;43.216;27.904;2022-10-16T03:01:12;11.20;73.41
67799;SHT30;54596;43.216;27.904;2022-10-16T03:03:39;11.14;73.57
67799;SHT30;54596;43.216;27.904;2022-10-16T03:06:04;11.12;73.73
67799;SHT30;54596;43.216;27.904;2022-10-16T03:08:31;11.14;73.55
67799;SHT30;54596;43.216;27.904;2022-10-16T03:10:56;11.11;73.52
67799;SHT30;54596;43.216;27.904;2022-10-16T03:13:21;11.14;73.37
67799;SHT30;54596;43.216;27.904;2022-10-16T03:15:47;11.07;73.49
67799;SHT30;54596;43.216;27.904;2022-10-16T03:18:13;11.06;73.64
67799;SHT30;54596;43.216;27.904;2022-10-16T03:20:38;11.03;73.58
67799;SHT30;54596;43.216;27.904;2022-10-16T03:23:04;11.10;73.51
67799;SHT30;54596;43.216;27.904;2022-10-16T03:25:29;11.10;73.47
67799;SHT30;54596;43.216;27.904;2022-10-16T03:27:55;11.11;73.35
67799;SHT30;54596;43.216;27.904;2022-10-16T03:30:20;11.10;73.33
67799;SHT30;54596;43.216;27.904;2022-10-16T03:32:46;11.11;73.18
67799;SHT30;54596;43.216;27.904;2022-10-16T03:35:12;11.06;73.27
67799;SHT30;54596;43.216;27.904;2022-10-16T03:37:38;11.03;73.42
67799;SHT30;54596;43.216;27.904;2022-10-16T03:40:04;11.03;73.43
67799;SHT30;54596;43.216;27.904;2022-10-16T03:42:30;11.03;73.27
67799;SHT30;54596;43.216;27.904;2022-10-16T03:44:55;11.00;73.31
67799;SHT30;54596;43.216;27.904;2022-10-16T03:47:20;11.04;73.31
67799;SHT30;54596;43.216;27.904;2022-10-16T03:49:49;11.03;73.41
67799;SHT30;54596;43.216;27.904;2022-10-16T03:52:14;11.08;73.26
67799;SHT30;54596;43.216;27.904;2022-10-16T03:54:40;11.14;73.03
67799;SHT30;54596;43.216;27.904;2022-10-16T03:57:05;11.18;72.94
67799;SHT30;54596;43.216;27.904;2022-10-16T03:59:31;11.17;73.01
67799;SHT30;54596;43.216;27.904;2022-10-16T04:01:56;11.15;73.06
67799;SHT30;54596;43.216;27.904;2022-10-16T04:04:22;11.18;73.22
67799;SHT30;54596;43.216;27.904;2022-10-16T04:06:47;11.17;73.33
67799;SHT30;54596;43.216;27.904;2022-10-16T04:09:12;11.18;73.41
67799;SHT30;54596;43.216;27.904;2022-10-16T04:11:38;11.21;73.29
67799;SHT30;54596;43.216;27.904;2022-10-16T04:14:04;11.24;73.21
67799;SHT30;54596;43.216;27.904;2022-10-16T04:16:29;11.27;73.19
67799;SHT30;54596;43.216;27.904;2022-10-16T04:18:55;11.25;73.32
67799;SHT30;54596;43.216;27.904;2022-10-16T04:21:20;11.31;73.33
67799;SHT30;54596;43.216;27.904;2022-10-16T04:23:46;11.34;73.22
67799;SHT30;54596;43.216;27.904;2022-10-16T04:26:11;11.31;72.95
67799;SHT30;54596;43.216;27.904;2022-10-16T04:28:37;11.32;73.01
67799;SHT30;54596;43.216;27.904;2022-10-16T04:31:06;11.34;73.04
67799;SHT30;54596;43.216;27.904;2022-10-16T04:33:33;11.35;72.90
67799;SHT30;54596;43.216;27.904;2022-10-16T04:35:59;11.42;72.70
67799;SHT30;54596;43.216;27.904;2022-10-16T04:38:25;11.48;72.60
67799;SHT30;54596;43.216;27.904;2022-10-16T04:40:51;11.40;72.48
67799;SHT30;54596;43.216;27.904;2022-10-16T04:43:17;11.39;72.47
67799;SHT30;54596;43.216;27.904;2022-10-16T04:45:43;11.49;72.34
67799;SHT30;54596;43.216;27.904;2022-10-16T04:48:08;11.54;72.19
67799;SHT30;54596;43.216;27.904;2022-10-16T04:50:34;11.59;72.10
67799;SHT30;54596;43.216;27.904;2022-10-16T04:52:59;11.66;71.76
67799;SHT30;54596;43.216;27.904;2022-10-16T04:55:25;11.69;71.73
67799;SHT30;54596;43.216;27.904;2022-10-16T04:57:50;11.67;71.98
67799;SHT30;54596;43.216;27.904;2022-10-16T05:00:16;11.79;71.63
67799;SHT30;54596;43.216;27.904;2022-10-16T05:02:42;11.90;71.27
67799;SHT30;54596;43.216;27.904;2022-10-16T05:05:07;12.00;71.11
67799;SHT30;54596;43.216;27.904;2022-10-16T05:07:33;12.00;70.88
67799;SHT30;54596;43.216;27.904;2022-10-16T05:09:58;12.04;70.72
67799;SHT30;54596;43.216;27.904;2022-10-16T05:12:24;12.07;70.70
67799;SHT30;54596;43.216;27.904;2022-10-16T05:14:49;12.20;70.40
67799;SHT30;54596;43.216;27.904;2022-10-16T05:17:15;12.32;70.17
67799;SHT30;54596;43.216;27.904;2022-10-16T05:19:40;12.39;69.85
67799;SHT30;54596;43.216;27.904;2022-10-16T05:22:06;12.50;69.41
67799;SHT30;54596;43.216;27.904;2022-10-16T05:24:31;12.66;69.18
67799;SHT30;54596;43.216;27.904;2022-10-16T05:26:57;12.76;68.52
67799;SHT30;54596;43.216;27.904;2022-10-16T05:29:22;12.95;68.11
67799;SHT30;54596;43.216;27.904;2022-10-16T05:31:50;13.22;67.44
67799;SHT30;54596;43.216;27.904;2022-10-16T05:34:16;13.93;66.15
67799;SHT30;54596;43.216;27.904;2022-10-16T05:36:42;14.76;63.71
67799;SHT30;54596;43.216;27.904;2022-10-16T05:39:09;15.68;60.71
67799;SHT30;54596;43.216;27.904;2022-10-16T05:41:35;17.32;56.31
67799;SHT30;54596;43.216;27.904;2022-10-16T05:44:04;18.16;54.07
67799;SHT30;54596;43.216;27.904;2022-10-16T05:46:29;19.72;50.86
67799;SHT30;54596;43.216;27.904;2022-10-16T05:48:54;20.58;50.08
67799;SHT30;54596;43.216;27.904;2022-10-16T05:51:20;20.95;48.53
67799;SHT30;54596;43.216;27.904;2022-10-16T05:53:45;21.46;47.50
67799;SHT30;54596;43.216;27.904;2022-10-16T05:56:11;21.03;47.33
67799;SHT30;54596;43.216;27.904;2022-10-16T05:58:38;21.46;46.14
67799;SHT30;54596;43.216;27.904;2022-10-16T06:01:17;22.53;44.67
67799;SHT30;54596;43.216;27.904;2022-10-16T06:03:43;23.00;43.63
67799;SHT30;54596;43.216;27.904;2022-10-16T06:06:10;23.07;43.93
67799;SHT30;54596;43.216;27.904;2022-10-16T06:08:36;23.86;42.61
67799;SHT30;54596;43.216;27.904;2022-10-16T06:11:03;24.76;40.60
67799;SHT30;54596;43.216;27.904;2022-10-16T06:13:28;24.50;41.17
67799;SHT30;54596;43.216;27.904;2022-10-16T06:15:57;25.24;40.06
67799;SHT30;54596;43.216;27.904;2022-10-16T06:18:22;25.05;39.74
67799;SHT30;54596;43.216;27.904;2022-10-16T06:20:48;24.71;40.21
67799;SHT30;54596;43.216;27.904;2022-10-16T06:23:14;24.02;41.78
67799;SHT30;54596;43.216;27.904;2022-10-16T06:25:39;23.98;41.78
67799;SHT30;54596;43.216;27.904;2022-10-16T06:28:05;23.93;41.85
67799;SHT30;54596;43.216;27.904;2022-10-16T06:30:30;24.51;41.22
67799;SHT30;54596;43.216;27.904;2022-10-16T06:32:55;24.82;40.71
67799;SHT30;54596;43.216;27.904;2022-10-16T06:35:21;24.29;41.24
67799;SHT30;54596;43.216;27.904;2022-10-16T06:37:47;24.36;41.20
67799;SHT30;54596;43.216;27.904;2022-10-16T06:40:12;25.28;40.33
67799;SHT30;54596;43.216;27.904;2022-10-16T06:42:40;25.23;40.31
67799;SHT30;54596;43.216;27.904;2022-10-16T06:45:05;26.06;39.32
67799;SHT30;54596;43.216;27.904;2022-10-16T06:47:31;25.43;39.83
67799;SHT30;54596;43.216;27.904;2022-10-16T06:49:56;25.51;39.61
67799;SHT30;54596;43.216;27.904;2022-10-16T06:52:22;25.61;39.34
67799;SHT30;54596;43.216;27.904;2022-10-16T06:54:47;25.96;39.05
67799;SHT30;54596;43.216;27.904;2022-10-16T06:57:14;26.41;39.39
67799;SHT30;54596;43.216;27.904;2022-10-16T06:59:40;26.95;38.18
67799;SHT30;54596;43.216;27.904;2022-10-16T07:02:05;27.66;37.25
67799;SHT30;54596;43.216;27.904;2022-10-16T07:04:32;26.44;38.35
67799;SHT30;54596;43.216;27.904;2022-10-16T07:07:00;26.55;39.21
67799;SHT30;54596;43.216;27.904;2022-10-16T07:09:25;27.27;37.88
67799;SHT30;54596;43.216;27.904;2022-10-16T07:11:51;26.81;38.37
67799;SHT30;54596;43.216;27.904;2022-10-16T07:14:18;26.88;38.18
67799;SHT30;54596;43.216;27.904;2022-10-16T07:16:44;27.34;37.86
67799;SHT30;54596;43.216;27.904;2022-10-16T07:19:10;26.52;38.24
67799;SHT30;54596;43.216;27.904;2022-10-16T07:21:37;26.69;38.20
67799;SHT30;54596;43.216;27.904;2022-10-16T07:24:05;27.30;37.96
67799;SHT30;54596;43.216;27.904;2022-10-16T07:26:35;28.58;36.03
67799;SHT30;54596;43.216;27.904;2022-10-16T07:29:01;29.16;35.13
67799;SHT30;54596;43.216;27.904;2022-10-16T07:31:27;28.54;35.70
67799;SHT30;54596;43.216;27.904;2022-10-16T07:33:53;27.78;36.66
67799;SHT30;54596;43.216;27.904;2022-10-16T07:36:20;28.72;35.47
67799;SHT30;54596;43.216;27.904;2022-10-16T07:38:45;28.79;35.28
67799;SHT30;54596;43.216;27.904;2022-10-16T07:41:15;29.24;34.79
67799;SHT30;54596;43.216;27.904;2022-10-16T07:43:46;29.45;34.44
67799;SHT30;54596;43.216;27.904;2022-10-16T07:46:12;27.30;37.20
67799;SHT30;54596;43.216;27.904;2022-10-16T07:48:38;28.31;36.28
67799;SHT30;54596;43.216;27.904;2022-10-16T07:51:06;29.28;34.33
67799;SHT30;54596;43.216;27.904;2022-10-16T07:53:33;28.80;35.12
67799;SHT30;54596;43.216;27.904;2022-10-16T07:55:59;28.33;36.09
67799;SHT30;54596;43.216;27.904;2022-10-16T07:58:26;28.68;35.56
67799;SHT30;54596;43.216;27.904;2022-10-16T08:00:51;29.24;34.68
67799;SHT30;54596;43.216;27.904;2022-10-16T08:03:17;29.95;33.73
67799;SHT30;54596;43.216;27.904;2022-10-16T08:05:42;30.85;33.12
67799;SHT30;54596;43.216;27.904;2022-10-16T08:08:15;30.17;33.65
67799;SHT30;54596;43.216;27.904;2022-10-16T08:10:41;29.99;33.35
67799;SHT30;54596;43.216;27.904;2022-10-16T08:13:07;29.43;33.69
67799;SHT30;54596;43.216;27.904;2022-10-16T08:15:32;29.58;34.03
67799;SHT30;54596;43.216;27.904;2022-10-16T08:18:02;30.07;33.49
67799;SHT30;54596;43.216;27.904;2022-10-16T08:20:29;29.04;34.70
67799;SHT30;54596;43.216;27.904;2022-10-16T08:22:55;27.62;36.19
67799;SHT30;54596;43.216;27.904;2022-10-16T08:25:22;26.26;37.48
67799;SHT30;54596;43.216;27.904;2022-10-16T08:27:48;23.23;42.37
67799;SHT30;54596;43.216;27.904;2022-10-16T08:30:14;23.12;43.35
67799;SHT30;54596;43.216;27.904;2022-10-16T08:32:40;21.44;45.69
67799;SHT30;54596;43.216;27.904;2022-10-16T08:35:08;21.86;45.04
67799;SHT30;54596;43.216;27.904;2022-10-16T08:37:34;21.84;45.05
67799;SHT30;54596;43.216;27.904;2022-10-16T08:40:00;22.08;44.47
67799;SHT30;54596;43.216;27.904;2022-10-16T08:50:57;20.20;47.86
67799;SHT30;54596;43.216;27.904;2022-10-16T08:53:31;20.44;47.72
67799;SHT30;54596;43.216;27.904;2022-10-16T08:55:58;19.58;48.86
67799;SHT30;54596;43.216;27.904;2022-10-16T08:58:29;19.49;49.42
67799;SHT30;54596;43.216;27.904;2022-10-16T09:00:57;19.65;48.64
67799;SHT30;54596;43.216;27.904;2022-10-16T09:22:41;17.98;51.81
67799;SHT30;54596;43.216;27.904;2022-10-16T09:25:15;17.81;52.10
67799;SHT30;54596;43.216;27.904;2022-10-16T09:27:42;17.84;52.37
67799;SHT30;54596;43.216;27.904;2022-10-16T09:30:29;17.69;52.17
67799;SHT30;54596;43.216;27.904;2022-10-16T09:32:54;17.59;52.40
67799;SHT30;54596;43.216;27.904;2022-10-16T09:35:27;17.63;52.39
67799;SHT30;54596;43.216;27.904;2022-10-16T09:37:56;17.57;52.46
67799;SHT30;54596;43.216;27.904;2022-10-16T09:40:28;17.66;51.85
67799;SHT30;54596;43.216;27.904;2022-10-16T09:46:00;17.75;52.26
67799;SHT30;54596;43.216;27.904;2022-10-16T09:48:46;17.88;52.15
67799;SHT30;54596;43.216;27.904;2022-10-16T09:53:59;18.01;52.00
67799;SHT30;54596;43.216;27.904;2022-10-16T09:56:31;17.97;51.54
67799;SHT30;54596;43.216;27.904;2022-10-16T09:59:10;17.92;51.44
67799;SHT30;54596;43.216;27.904;2022-10-16T10:01:39;17.81;51.76
67799;SHT30;54596;43.216;27.904;2022-10-16T10:04:05;17.73;52.24
67799;SHT30;54596;43.216;27.904;2022-10-16T10:06:52;17.74;52.24
67799;SHT30;54596;43.216;27.904;2022-10-16T10:09:24;17.89;52.65
67799;SHT30;54596;43.216;27.904;2022-10-16T10:12:00;17.98;51.78
67799;SHT30;54596;43.216;27.904;2022-10-16T10:14:43;18.05;52.09
67799;SHT30;54596;43.216;27.904;2022-10-16T10:19:48;18.01;51.90
67799;SHT30;54596;43.216;27.904;2022-10-16T10:33:17;17.92;52.11
67799;SHT30;54596;43.216;27.904;2022-10-16T10:46:57;17.81;52.24
67799;SHT30;54596;43.216;27.904;2022-10-16T11:01:09;17.88;51.44
67799;SHT30;54596;43.216;27.904;2022-10-16T11:04:18;17.94;51.32
67799;SHT30;54596;43.216;27.904;2022-10-16T11:06:41;18.04;51.20
67799;SHT30;54596;43.216;27.904;2022-10-16T11:09:13;17.99;51.23
67799;SHT30;54596;43.216;27.904;2022-10-16T11:11:44;18.02;51.50
67799;SHT30;54596;43.216;27.904;2022-10-16T11:14:20;17.87;51.61
67799;SHT30;54596;43.216;27.904;2022-10-16T11:17:22;17.74;51.72
67799;SHT30;54596;43.216;27.904;2022-10-16T11:20:02;17.80;51.99
67799;SHT30;54596;43.216;27.904;2022-10-16T11:22:35;17.89;51.06
67799;SHT30;54596;43.216;27.904;2022-10-16T11:25:26;17.88;50.71
67799;SHT30;54596;43.216;27.904;2022-10-16T11:30:30;17.91;50.75
67799;SHT30;54596;43.216;27.904;2022-10-16T11:33:00;17.94;50.88
67799;SHT30;54596;43.216;27.904;2022-10-16T11:35:47;17.91;49.98
67799;SHT30;54596;43.216;27.904;2022-10-16T11:40:51;17.97;50.26
67799;SHT30;54596;43.216;27.904;2022-10-16T11:43:28;17.78;51.31
67799;SHT30;54596;43.216;27.904;2022-10-16T11:45:57;17.74;51.37
67799;SHT30;54596;43.216;27.904;2022-10-16T11:48:35;17.84;51.67
67799;SHT30;54596;43.216;27.904;2022-10-16T11:54:07;18.02;51.32
67799;SHT30;54596;43.216;27.904;2022-10-16T11:56:38;18.02;50.78
67799;SHT30;54596;43.216;27.904;2022-10-16T11:59:20;17.97;50.59
67799;SHT30;54596;43.216;27.904;2022-10-16T12:04:39;17.91;50.43
67799;SHT30;54596;43.216;27.904;2022-10-16T12:07:26;17.89;49.39
67799;SHT30;54596;43.216;27.904;2022-10-16T12:09:53;17.82;49.74
67799;SHT30;54596;43.216;27.904;2022-10-16T12:12:42;17.89;50.12
67799;SHT30;54596;43.216;27.904;2022-10-16T12:15:25;17.94;50.52
67799;SHT30;54596;43.216;27.904;2022-10-16T12:17:51;17.88;51.26
67799;SHT30;54596;43.216;27.904;2022-10-16T12:22:56;17.73;51.66
67799;SHT30;54596;43.216;27.904;2022-10-16T12:30:41;17.95;51.79
67799;SHT30;54596;43.216;27.904;2022-10-16T12:33:20;17.80;51.65
67799;SHT30;54596;43.216;27.904;2022-10-16T12:35:46;17.75;51.47
67799;SHT30;54596;43.216;27.904;2022-10-16T12:38:18;17.81;50.95
67799;SHT30;54596;43.216;27.904;2022-10-16T12:40:56;17.70;50.54
67799;SHT30;54596;43.216;27.904;2022-10-16T12:46:18;17.64;50.64
67799;SHT30;54596;43.216;27.904;2022-10-16T12:48:46;17.64;50.92
67799;SHT30;54596;43.216;27.904;2022-10-16T13:02:18;17.63;51.35
67799;SHT30;54596;43.216;27.904;2022-10-16T13:18:51;17.57;50.46
67799;SHT30;54596;43.216;27.904;2022-10-16T13:22:11;17.50;51.00
67799;SHT30;54596;43.216;27.904;2022-10-16T13:29:52;17.42;51.39
67799;SHT30;54596;43.216;27.904;2022-10-16T13:32:19;17.35;51.72
67799;SHT30;54596;43.216;27.904;2022-10-16T13:34:47;17.26;52.05
67799;SHT30;54596;43.216;27.904;2022-10-16T13:37:22;17.26;52.06
67799;SHT30;54596;43.216;27.904;2022-10-16T13:39:48;17.15;51.94
67799;SHT30;54596;43.216;27.904;2022-10-16T13:42:24;17.14;52.28
67799;SHT30;54596;43.216;27.904;2022-10-16T13:44:52;17.09;52.36
67799;SHT30;54596;43.216;27.904;2022-10-16T13:47:26;17.14;51.78
67799;SHT30;54596;43.216;27.904;2022-10-16T13:50:14;17.16;52.12
67799;SHT30;54596;43.216;27.904;2022-10-16T13:52:40;17.15;52.14
67799;SHT30;54596;43.216;27.904;2022-10-16T13:55:16;17.15;52.11
67799;SHT30;54596;43.216;27.904;2022-10-16T13:57:43;17.09;52.00
67799;SHT30;54596;43.216;27.904;2022-10-16T14:00:20;17.05;52.38
67799;SHT30;54596;43.216;27.904;2022-10-16T14:02:53;17.04;52.33
67799;SHT30;54596;43.216;27.904;2022-10-16T14:05:20;17.01;52.53
67799;SHT30;54596;43.216;27.904;2022-10-16T14:07:49;16.98;52.46
67799;SHT30;54596;43.216;27.904;2022-10-16T14:10:25;16.98;52.34
67799;SHT30;54596;43.216;27.904;2022-10-16T14:13:12;16.94;52.25
67799;SHT30;54596;43.216;27.904;2022-10-16T14:15:40;16.91;52.11
67799;SHT30;54596;43.216;27.904;2022-10-16T14:18:19;16.94;52.21
67799;SHT30;54596;43.216;27.904;2022-10-16T14:20:45;16.85;52.27
67799;SHT30;54596;43.216;27.904;2022-10-16T14:23:21;16.84;51.95
67799;SHT30;54596;43.216;27.904;2022-10-16T14:25:47;16.73;52.01
67799;SHT30;54596;43.216;27.904;2022-10-16T14:30:58;16.66;52.23
67799;SHT30;54596;43.216;27.904;2022-10-16T14:38:29;16.57;52.06
67799;SHT30;54596;43.216;27.904;2022-10-16T14:40:57;16.53;52.28
67799;SHT30;54596;43.216;27.904;2022-10-16T14:43:42;16.50;52.29
67799;SHT30;54596;43.216;27.904;2022-10-16T14:46:38;16.49;52.39
67799;SHT30;54596;43.216;27.904;2022-10-16T14:49:12;16.38;52.73
67799;SHT30;54596;43.216;27.904;2022-10-16T14:51:40;16.36;52.75
67799;SHT30;54596;43.216;27.904;2022-10-16T14:54:12;16.33;52.95
67799;SHT30;54596;43.216;27.904;2022-10-16T14:56:51;16.28;53.25
67799;SHT30;54596;43.216;27.904;2022-10-16T14:59:26;16.19;53.25
67799;SHT30;54596;43.216;27.904;2022-10-16T15:01:52;16.13;53.26
67799;SHT30;54596;43.216;27.904;2022-10-16T15:04:18;16.12;53.29
67799;SHT30;54596;43.216;27.904;2022-10-16T15:06:46;16.05;53.18
67799;SHT30;54596;43.216;27.904;2022-10-16T15:09:12;15.98;53.29
67799;SHT30;54596;43.216;27.904;2022-10-16T15:11:38;15.97;53.40
67799;SHT30;54596;43.216;27.904;2022-10-16T15:14:04;15.93;53.38
67799;SHT30;54596;43.216;27.904;2022-10-16T15:16:30;15.83;53.57
67799;SHT30;54596;43.216;27.904;2022-10-16T15:18:56;15.80;53.57
67799;SHT30;54596;43.216;27.904;2022-10-16T15:21:26;15.74;53.41
67799;SHT30;54596;43.216;27.904;2022-10-16T15:23:52;15.71;53.27
67799;SHT30;54596;43.216;27.904;2022-10-16T15:26:18;15.67;53.48
67799;SHT30;54596;43.216;27.904;2022-10-16T15:28:43;15.63;53.57
67799;SHT30;54596;43.216;27.904;2022-10-16T15:31:09;15.56;53.66
67799;SHT30;54596;43.216;27.904;2022-10-16T15:33:34;15.57;53.41
67799;SHT30;54596;43.216;27.904;2022-10-16T15:36:00;15.47;53.84
67799;SHT30;54596;43.216;27.904;2022-10-16T15:38:27;15.40;53.83
67799;SHT30;54596;43.216;27.904;2022-10-16T15:40:53;15.35;54.00
67799;SHT30;54596;43.216;27.904;2022-10-16T15:43:18;15.29;54.28
67799;SHT30;54596;43.216;27.904;2022-10-16T15:45:47;15.28;54.37
67799;SHT30;54596;43.216;27.904;2022-10-16T15:48:23;15.24;54.71
67799;SHT30;54596;43.216;27.904;2022-10-16T15:50:48;15.18;54.81
67799;SHT30;54596;43.216;27.904;2022-10-16T15:53:13;15.15;55.17
67799;SHT30;54596;43.216;27.904;2022-10-16T15:55:39;15.08;55.43
67799;SHT30;54596;43.216;27.904;2022-10-16T15:58:05;15.04;55.69
67799;SHT30;54596;43.216;27.904;2022-10-16T16:00:30;14.98;55.79
67799;SHT30;54596;43.216;27.904;2022-10-16T16:02:56;14.95;56.03
67799;SHT30;54596;43.216;27.904;2022-10-16T16:05:22;14.88;56.45
67799;SHT30;54596;43.216;27.904;2022-10-16T16:07:48;14.81;56.75
67799;SHT30;54596;43.216;27.904;2022-10-16T16:10:14;14.79;57.10
67799;SHT30;54596;43.216;27.904;2022-10-16T16:12:39;14.69;57.36
67799;SHT30;54596;43.216;27.904;2022-10-16T16:15:06;14.64;57.73
67799;SHT30;54596;43.216;27.904;2022-10-16T16:17:34;14.57;58.12
67799;SHT30;54596;43.216;27.904;2022-10-16T16:20:00;14.49;58.35
67799;SHT30;54596;43.216;27.904;2022-10-16T16:22:26;14.46;58.88
67799;SHT30;54596;43.216;27.904;2022-10-16T16:24:51;14.43;58.90
67799;SHT30;54596;43.216;27.904;2022-10-16T16:27:17;14.40;59.28
67799;SHT30;54596;43.216;27.904;2022-10-16T16:29:42;14.33;59.65
67799;SHT30;54596;43.216;27.904;2022-10-16T16:32:08;14.28;59.84
67799;SHT30;54596;43.216;27.904;2022-10-16T16:34:33;14.25;60.02
67799;SHT30;54596;43.216;27.904;2022-10-16T16:36:59;14.24;60.14
67799;SHT30;54596;43.216;27.904;2022-10-16T16:39:25;14.22;60.58
67799;SHT30;54596;43.216;27.904;2022-10-16T16:41:50;14.14;60.67
67799;SHT30;54596;43.216;27.904;2022-10-16T16:44:17;14.08;61.29
67799;SHT30;54596;43.216;27.904;2022-10-16T16:46:43;14.02;61.44
67799;SHT30;54596;43.216;27.904;2022-10-16T16:49:13;14.01;61.67
67799;SHT30;54596;43.216;27.904;2022-10-16T16:51:39;13.95;61.87
67799;SHT30;54596;43.216;27.904;2022-10-16T16:54:05;13.94;62.05
67799;SHT30;54596;43.216;27.904;2022-10-16T16:56:32;13.90;62.35
67799;SHT30;54596;43.216;27.904;2022-10-16T16:58:58;13.88;62.38
67799;SHT30;54596;43.216;27.904;2022-10-16T17:01:25;13.88;62.43
67799;SHT30;54596;43.216;27.904;2022-10-16T17:03:52;13.87;62.47
67799;SHT30;54596;43.216;27.904;2022-10-16T17:06:19;13.84;62.52
67799;SHT30;54596;43.216;27.904;2022-10-16T17:08:45;13.81;62.76
67799;SHT30;54596;43.216;27.904;2022-10-16T17:11:16;13.80;62.66
67799;SHT30;54596;43.216;27.904;2022-10-16T17:13:42;13.74;62.89
67799;SHT30;54596;43.216;27.904;2022-10-16T17:16:08;13.69;62.97
67799;SHT30;54596;43.216;27.904;2022-10-16T17:18:34;13.63;63.31
67799;SHT30;54596;43.216;27.904;2022-10-16T17:21:01;13.62;63.40
67799;SHT30;54596;43.216;27.904;2022-10-16T17:23:27;13.57;63.42
67799;SHT30;54596;43.216;27.904;2022-10-16T17:25:53;13.49;63.61
67799;SHT30;54596;43.216;27.904;2022-10-16T17:28:19;13.46;63.74
67799;SHT30;54596;43.216;27.904;2022-10-16T17:30:44;13.43;63.96
67799;SHT30;54596;43.216;27.904;2022-10-16T17:33:11;13.43;64.08
67799;SHT30;54596;43.216;27.904;2022-10-16T17:35:38;13.39;64.14
67799;SHT30;54596;43.216;27.904;2022-10-16T17:38:04;13.40;64.13
67799;SHT30;54596;43.216;27.904;2022-10-16T17:40:30;13.26;64.40
67799;SHT30;54596;43.216;27.904;2022-10-16T17:42:56;13.23;64.68
67799;SHT30;54596;43.216;27.904;2022-10-16T17:45:21;13.18;64.86
67799;SHT30;54596;43.216;27.904;2022-10-16T17:47:47;13.16;64.98
67799;SHT30;54596;43.216;27.904;2022-10-16T17:50:12;13.08;65.30
67799;SHT30;54596;43.216;27.904;2022-10-16T17:52:38;13.08;65.44